If you wish to contribute or participate in the discussions about articles you are invited to join SKYbrary as a registered user

 Actions

Luang Namtha Airport

From SKYbrary Wiki

VLLN /
Revision as of 12:18, 19 August 2019 by Integration.Manager (talk | contribs)
(diff) ← Older revision | Latest revision (diff) | Newer revision → (diff)
Airport
ICAO: VLLN – IATA: LXG
Summary
Name Luang Namtha Airport
Region Asia and Pacific
Territory Laos LA.gif
Location Louang Namtha, Loungnamtha
Serving Luang Namtha
Elevation 599.846 m
1,968 ft
1,968 ft599.846 m
Type small airport
Coordinates 20° 57' 38.02" N, 101° 24' 9.00" E
Runways
Designator Length Width Surface ROPS


METAR
Observation VLLN 170000Z 22002KT 1000 BR OVC010 22/22 Q1012 NOSIG
Station Luang Namtha Airport
Date/Time 17 September 2019 00:00:00
Wind direction 220°
Wind speed 02 kts
Lowest cloud amount overcast
Temperature 22°C
Dew point 22°C
Humidity 100%
QNH 1012 hPa
Weather condition n/a

Louangnamtha Airport is an airport in Laos, 6 km south of the city of Luang Namtha.

Climatology

Tropical savannah climate (Köppen climate classification Aw)

Maps

Terrain

Loading map...

Airport Layout

Loading map...


Accidents & Serious Incidents at or in vicinity of VLLN

None on SKYbrary